createdAt,value
2019-04-05T00:00:46.838Z,2.67
2019-04-05T00:01:46.819Z,2.61
2019-04-05T00:02:46.805Z,2.61
2019-04-05T00:03:46.849Z,2.61
2019-04-05T00:04:46.799Z,2.58
2019-04-05T00:05:46.793Z,2.69
2019-04-05T00:06:46.767Z,2.52
2019-04-05T00:07:47.310Z,2.64
2019-04-05T00:08:46.778Z,2.67
2019-04-05T00:09:46.757Z,2.66
2019-04-05T00:10:46.728Z,2.64
2019-04-05T00:11:46.715Z,2.73
2019-04-05T00:12:46.707Z,2.64
2019-04-05T00:13:46.728Z,2.61
2019-04-05T00:14:46.700Z,2.63
2019-04-05T00:15:46.687Z,2.67
2019-04-05T00:16:46.671Z,2.67
2019-04-05T00:17:46.650Z,2.64
2019-04-05T00:18:46.652Z,2.67
2019-04-05T00:19:46.669Z,2.53
2019-04-05T00:20:46.637Z,2.66
2019-04-05T00:21:46.619Z,2.63
2019-04-05T00:22:46.602Z,2.64
2019-04-05T00:23:46.608Z,2.69
2019-04-05T00:24:46.604Z,2.73
2019-04-05T00:25:46.580Z,2.64
2019-04-05T00:26:46.571Z,2.66
2019-04-05T00:27:46.564Z,2.58
2019-04-05T00:28:46.545Z,2.66
2019-04-05T00:29:46.855Z,2.63
2019-04-05T00:30:46.532Z,2.64
2019-04-05T00:31:46.542Z,2.64
2019-04-05T00:32:46.509Z,2.64
2019-04-05T00:33:46.495Z,2.73
2019-04-05T00:34:46.509Z,2.67
2019-04-05T00:35:46.504Z,2.73
2019-04-05T00:36:46.472Z,2.70
2019-04-05T00:37:46.451Z,2.66
2019-04-05T00:38:46.454Z,2.61
2019-04-05T00:39:46.466Z,2.66
2019-04-05T00:40:46.476Z,2.70
2019-04-05T00:41:46.413Z,2.67
2019-04-05T00:42:46.402Z,2.73
2019-04-05T00:43:46.438Z,2.63
2019-04-05T00:44:46.390Z,2.74
2019-04-05T00:45:46.410Z,2.67
2019-04-05T00:46:46.369Z,2.64
2019-04-05T00:47:46.351Z,2.64
2019-04-05T00:48:46.338Z,2.61
2019-04-05T00:49:46.368Z,2.70
2019-04-05T00:50:46.314Z,2.64
2019-04-05T00:51:46.310Z,2.74
2019-04-05T00:52:46.294Z,2.56
2019-04-05T00:53:46.289Z,2.76
2019-04-05T00:54:46.302Z,2.74
2019-04-05T00:55:46.266Z,2.76
2019-04-05T00:56:46.256Z,2.82
2019-04-05T00:57:46.241Z,2.70
2019-04-05T00:58:46.236Z,2.74
2019-04-05T00:59:46.254Z,2.81
2019-04-05T01:00:46.216Z,2.77
2019-04-05T01:01:46.206Z,2.71
2019-04-05T01:02:46.189Z,2.76
2019-04-05T01:03:46.186Z,2.74
2019-04-05T01:04:46.202Z,2.76
2019-04-05T01:05:46.170Z,2.73
2019-04-05T01:06:46.151Z,2.69
2019-04-05T01:07:46.148Z,2.67
2019-04-05T01:08:46.137Z,2.77
2019-04-05T01:09:46.155Z,2.81
2019-04-05T01:10:46.124Z,2.64
2019-04-05T01:11:46.103Z,2.81
2019-04-05T01:12:46.092Z,2.84
2019-04-05T01:13:46.084Z,2.81
2019-04-05T01:14:46.099Z,2.84
2019-04-05T01:15:46.064Z,2.82
2019-04-05T01:16:46.050Z,2.91
2019-04-05T01:17:46.043Z,2.71
2019-04-05T01:18:46.035Z,2.67
2019-04-05T01:19:46.046Z,2.77
2019-04-05T01:20:46.018Z,2.77
2019-04-05T01:21:46.007Z,2.69
2019-04-05T01:22:45.989Z,2.73
2019-04-05T01:23:45.986Z,2.88
2019-04-05T01:24:46.081Z,2.74
2019-04-05T01:25:45.954Z,2.82
2019-04-05T01:26:45.943Z,2.70
2019-04-05T01:27:48.330Z,2.71
2019-04-05T01:28:45.937Z,2.71
2019-04-05T01:29:45.919Z,2.84
2019-04-05T01:30:45.936Z,2.77
2019-04-05T01:31:45.894Z,2.82
2019-04-05T01:32:45.881Z,2.71
2019-04-05T01:33:45.881Z,2.85
2019-04-05T01:34:45.860Z,2.82
2019-04-05T01:35:45.872Z,2.87
2019-04-05T01:36:45.848Z,2.81
2019-04-05T01:37:45.835Z,2.84
2019-04-05T01:38:45.822Z,2.84
2019-04-05T01:39:45.826Z,2.70
2019-04-05T01:40:45.836Z,2.81
2019-04-05T01:41:45.795Z,2.82
2019-04-05T01:42:45.789Z,2.84
2019-04-05T01:43:45.773Z,2.81
2019-04-05T01:44:45.775Z,2.91
2019-04-05T01:45:53.739Z,2.84
2019-04-05T01:46:46.737Z,2.84
2019-04-05T01:47:45.787Z,2.92
2019-04-05T01:48:45.730Z,2.89
2019-04-05T01:49:45.806Z,2.88
2019-04-05T01:50:45.732Z,2.92
2019-04-05T01:51:45.693Z,2.91
2019-04-05T01:52:45.683Z,2.97
2019-04-05T01:53:45.671Z,2.95
2019-04-05T01:54:45.681Z,2.87
2019-04-05T01:55:45.676Z,2.91
2019-04-05T01:56:45.653Z,2.92
2019-04-05T01:57:45.630Z,2.94
2019-04-05T01:58:45.627Z,2.94
2019-04-05T01:59:45.615Z,2.98
2019-04-05T02:00:45.635Z,2.94
2019-04-05T02:01:45.587Z,2.94
2019-04-05T02:02:45.582Z,2.95
2019-04-05T02:03:45.587Z,2.89
2019-04-05T02:04:45.564Z,2.94
2019-04-05T02:05:45.585Z,2.85
2019-04-05T02:06:45.544Z,2.91
2019-04-05T02:07:45.534Z,2.92
2019-04-05T02:08:45.522Z,2.94
2019-04-05T02:09:45.516Z,2.92
2019-04-05T02:10:45.902Z,2.94
2019-04-05T02:11:45.725Z,2.94
2019-04-05T02:12:45.721Z,2.95
2019-04-05T02:13:45.517Z,2.91
2019-04-05T02:14:45.493Z,2.88
2019-04-05T02:15:45.561Z,2.89
2019-04-05T02:16:45.493Z,2.92
2019-04-05T02:17:45.479Z,2.89
2019-04-05T02:18:45.470Z,3.00
2019-04-05T02:19:45.454Z,3.00
2019-04-05T02:20:45.444Z,2.91
2019-04-05T02:21:45.517Z,2.94
2019-04-05T02:22:45.418Z,2.92
2019-04-05T02:23:45.388Z,2.89
2019-04-05T02:24:45.431Z,2.87
2019-04-05T02:25:45.477Z,2.91
2019-04-05T02:26:45.453Z,2.91
2019-04-05T02:27:45.368Z,2.87
2019-04-05T02:28:45.437Z,2.89
2019-04-05T02:29:45.341Z,2.92
2019-04-05T02:30:45.339Z,2.89
2019-04-05T02:31:45.332Z,2.88
2019-04-05T02:32:45.322Z,2.95
2019-04-05T02:33:45.400Z,2.82
2019-04-05T02:34:45.300Z,2.84
2019-04-05T02:35:45.275Z,2.81
2019-04-05T02:36:45.267Z,2.85
2019-04-05T02:37:45.346Z,2.71
2019-04-05T02:38:45.267Z,2.82
2019-04-05T02:39:45.245Z,2.79
2019-04-05T02:40:45.319Z,2.77
2019-04-05T02:41:45.234Z,2.85
2019-04-05T02:42:45.209Z,2.81
2019-04-05T02:43:45.200Z,2.82
2019-04-05T02:44:45.200Z,2.91
2019-04-05T02:45:45.330Z,2.88
2019-04-05T02:46:45.207Z,2.82
2019-04-05T02:47:45.166Z,2.81
2019-04-05T02:48:45.142Z,2.77
2019-04-05T02:49:45.170Z,2.84
2019-04-05T02:50:45.256Z,2.73
2019-04-05T02:51:45.084Z,2.77
2019-04-05T02:52:45.065Z,2.74
2019-04-05T02:53:45.067Z,2.73
2019-04-05T02:54:45.063Z,2.79
2019-04-05T02:55:45.073Z,2.70
2019-04-05T02:56:45.041Z,2.79
2019-04-05T02:57:45.023Z,2.81
2019-04-05T02:58:45.018Z,2.82
2019-04-05T02:59:45.008Z,2.79
2019-04-05T03:00:45.045Z,2.81
2019-04-05T03:01:45.008Z,2.79
2019-04-05T03:02:45.014Z,2.84
2019-04-05T03:03:44.971Z,2.73
2019-04-05T03:04:44.960Z,2.79
2019-04-05T03:05:44.936Z,2.81
2019-04-05T03:06:44.972Z,2.88
2019-04-05T03:07:44.911Z,2.74
2019-04-05T03:08:44.920Z,2.73
2019-04-05T03:09:44.905Z,2.69
2019-04-05T03:10:44.888Z,2.82
2019-04-05T03:11:44.915Z,2.85
2019-04-05T03:12:44.865Z,2.81
2019-04-05T03:13:44.886Z,2.77
2019-04-05T03:14:44.850Z,2.69
2019-04-05T03:15:44.834Z,2.70
2019-04-05T03:16:44.820Z,2.84
2019-04-05T03:17:45.781Z,2.76
2019-04-05T03:18:44.835Z,2.81
2019-04-05T03:19:44.798Z,2.84
2019-04-05T03:20:44.794Z,2.81
2019-04-05T03:21:44.814Z,2.79
2019-04-05T03:22:44.765Z,2.79
2019-04-05T03:23:44.770Z,2.85
2019-04-05T03:24:44.758Z,2.91
2019-04-05T03:25:48.084Z,2.79
2019-04-05T03:26:44.753Z,2.81
2019-04-05T03:27:44.755Z,2.81
2019-04-05T03:28:44.875Z,2.81
2019-04-05T03:29:44.691Z,2.84
2019-04-05T03:30:44.686Z,2.69
2019-04-05T03:31:44.682Z,2.71
2019-04-05T03:32:44.695Z,2.77
2019-04-05T03:33:44.663Z,2.82
2019-04-05T03:34:44.666Z,2.71
2019-04-05T03:35:44.637Z,2.82
2019-04-05T03:36:44.637Z,2.82
2019-04-05T03:37:44.607Z,2.88
2019-04-05T03:38:44.598Z,2.84
2019-04-05T03:39:44.635Z,2.84
2019-04-05T03:40:44.618Z,2.91
2019-04-05T03:41:44.570Z,2.97
2019-04-05T03:42:44.588Z,2.82
2019-04-05T03:43:44.555Z,2.82
2019-04-05T03:44:44.547Z,2.91
2019-04-05T03:45:44.530Z,2.87
2019-04-05T03:46:56.172Z,2.87
2019-04-05T03:47:45.521Z,2.91
2019-04-05T03:48:44.505Z,2.98
2019-04-05T03:49:44.511Z,2.84
2019-04-05T03:50:45.398Z,2.91
2019-04-05T03:51:44.507Z,2.91
2019-04-05T03:52:44.461Z,2.87
2019-04-05T03:53:44.445Z,2.92
2019-04-05T03:54:44.451Z,2.98
2019-04-05T03:55:44.427Z,2.92
2019-04-05T03:56:44.446Z,2.92
2019-04-05T03:57:44.408Z,2.87
2019-04-05T03:58:44.399Z,2.84
2019-04-05T03:59:44.378Z,2.94
2019-04-05T04:00:44.381Z,2.92
2019-04-05T04:01:44.393Z,2.88
2019-04-05T04:02:44.347Z,2.87
2019-04-05T04:03:44.337Z,2.84
2019-04-05T04:04:44.333Z,2.89
2019-04-05T04:05:44.319Z,2.88
2019-04-05T04:06:44.343Z,2.92
2019-04-05T04:07:44.289Z,2.88
2019-04-05T04:08:44.287Z,2.82
2019-04-05T04:09:44.270Z,2.81
2019-04-05T04:10:44.315Z,2.81
2019-04-05T04:11:44.278Z,2.87
2019-04-05T04:12:44.247Z,2.84
2019-04-05T04:13:44.223Z,2.82
2019-04-05T04:14:44.224Z,2.84
2019-04-05T04:15:44.207Z,2.82
2019-04-05T04:16:44.208Z,2.69
2019-04-05T04:17:44.217Z,2.81
2019-04-05T04:18:44.194Z,2.87
2019-04-05T04:19:44.776Z,2.71
2019-04-05T04:20:44.166Z,2.82
2019-04-05T04:21:44.189Z,2.69
2019-04-05T04:22:44.133Z,2.74
2019-04-05T04:23:44.131Z,2.74
2019-04-05T04:24:44.126Z,2.73
2019-04-05T04:25:44.374Z,2.69
2019-04-05T04:26:44.095Z,2.89
2019-04-05T04:27:44.089Z,2.77
2019-04-05T04:28:44.081Z,2.74
2019-04-05T04:29:44.076Z,2.77
2019-04-05T04:30:44.054Z,2.67
2019-04-05T04:31:44.070Z,2.87
2019-04-05T04:32:44.074Z,2.82
2019-04-05T04:33:44.061Z,2.82
2019-04-05T04:34:44.021Z,2.84
2019-04-05T04:35:44.002Z,2.81
2019-04-05T04:36:43.995Z,2.82
2019-04-05T04:37:44.016Z,2.81
2019-04-05T04:38:43.977Z,2.81
2019-04-05T04:39:43.966Z,2.81
2019-04-05T04:40:43.949Z,2.77
2019-04-05T04:41:43.941Z,2.84
2019-04-05T04:42:44.295Z,2.76
2019-04-05T04:43:43.932Z,2.74
2019-04-05T04:44:43.920Z,2.81
2019-04-05T04:45:43.918Z,2.81
2019-04-05T04:46:43.901Z,2.81
2019-04-05T04:47:43.877Z,2.82
2019-04-05T04:48:43.907Z,2.81
2019-04-05T04:49:43.955Z,2.91
2019-04-05T04:50:43.854Z,2.85
2019-04-05T04:51:43.853Z,2.88
2019-04-05T04:52:43.833Z,2.74
2019-04-05T04:53:43.856Z,2.85
2019-04-05T04:54:43.813Z,2.88
2019-04-05T04:55:43.833Z,2.87
2019-04-05T04:56:43.796Z,2.85
2019-04-05T04:57:43.774Z,2.85
2019-04-05T04:58:46.240Z,2.82
2019-04-05T04:59:43.765Z,2.82
2019-04-05T05:00:43.750Z,2.87
2019-04-05T05:01:43.772Z,2.82
2019-04-05T05:02:43.751Z,2.82
2019-04-05T05:03:43.713Z,2.84
2019-04-05T05:04:43.713Z,2.77
2019-04-05T05:05:43.694Z,2.81
2019-04-05T05:06:43.685Z,2.81
2019-04-05T05:07:43.713Z,2.84
2019-04-05T05:08:43.675Z,2.81
2019-04-05T05:09:43.666Z,2.87
2019-04-05T05:10:43.646Z,2.88
2019-04-05T05:11:43.637Z,2.82
2019-04-05T05:12:43.657Z,2.84
2019-04-05T05:13:43.617Z,2.91
2019-04-05T05:14:43.612Z,2.87
2019-04-05T05:15:43.596Z,2.92
2019-04-05T05:16:43.582Z,2.91
2019-04-05T05:17:43.613Z,2.97
2019-04-05T05:18:43.569Z,2.94
2019-04-05T05:19:43.564Z,3.00
2019-04-05T05:20:43.544Z,2.97
2019-04-05T05:21:43.535Z,2.97
2019-04-05T05:22:43.547Z,3.07
2019-04-05T05:23:43.518Z,3.07
2019-04-05T05:24:43.508Z,3.09
2019-04-05T05:25:43.494Z,3.05
2019-04-05T05:26:43.478Z,3.12
2019-04-05T05:27:43.500Z,3.03
2019-04-05T05:28:43.498Z,3.16
2019-04-05T05:29:43.448Z,3.18
2019-04-05T05:30:43.491Z,3.16
2019-04-05T05:31:43.435Z,3.24
2019-04-05T05:32:43.446Z,3.24
2019-04-05T05:33:43.427Z,3.24
2019-04-05T05:34:43.403Z,3.25
2019-04-05T05:35:43.401Z,3.18
2019-04-05T05:36:43.381Z,3.20
2019-04-05T05:37:43.392Z,3.16
2019-04-05T05:38:44.285Z,3.16
2019-04-05T05:39:43.346Z,3.20
2019-04-05T05:40:43.340Z,3.24
2019-04-05T05:41:43.379Z,3.27
2019-04-05T05:42:43.324Z,3.31
2019-04-05T05:43:43.367Z,3.33
2019-04-05T05:44:43.384Z,3.25
2019-04-05T05:45:43.292Z,3.36
2019-04-05T05:46:43.293Z,3.44
2019-04-05T05:47:51.735Z,3.36
2019-04-05T05:48:44.312Z,3.40
2019-04-05T05:49:43.519Z,3.36
2019-04-05T05:50:43.244Z,3.40
2019-04-05T05:51:43.235Z,3.43
2019-04-05T05:52:43.212Z,3.39
2019-04-05T05:53:43.204Z,3.42
2019-04-05T05:54:43.229Z,3.53
2019-04-05T05:55:43.208Z,3.53
2019-04-05T05:56:43.175Z,3.47
2019-04-05T05:57:43.771Z,3.61
2019-04-05T05:58:43.204Z,3.60
2019-04-05T05:59:43.153Z,3.65
2019-04-05T06:00:43.145Z,3.71
2019-04-05T06:01:43.122Z,3.71
2019-04-05T06:02:43.141Z,3.71
2019-04-05T06:03:43.134Z,3.75
2019-04-05T06:04:43.088Z,3.60
2019-04-05T06:05:43.148Z,3.65
2019-04-05T06:06:43.098Z,3.70
2019-04-05T06:07:43.064Z,3.75
2019-04-05T06:08:43.078Z,3.70
2019-04-05T06:09:43.042Z,3.65
2019-04-05T06:10:43.040Z,3.68
2019-04-05T06:11:43.026Z,3.61
2019-04-05T06:12:43.045Z,3.79
2019-04-05T06:13:43.039Z,3.82
2019-04-05T06:14:42.986Z,3.79
2019-04-05T06:15:42.998Z,3.86
2019-04-05T06:16:46.584Z,3.97
2019-04-05T06:17:42.954Z,3.96
2019-04-05T06:18:42.986Z,3.97
2019-04-05T06:19:42.936Z,4.06
2019-04-05T06:20:42.936Z,4.00
2019-04-05T06:21:42.919Z,4.04
2019-04-05T06:22:42.945Z,4.06
2019-04-05T06:23:42.904Z,4.07
2019-04-05T06:24:42.886Z,4.08
2019-04-05T06:25:42.914Z,4.12
2019-04-05T06:26:42.866Z,4.15
2019-04-05T06:27:42.886Z,4.15
2019-04-05T06:28:42.999Z,4.12
2019-04-05T06:29:42.870Z,4.14
2019-04-05T06:30:42.830Z,4.15
2019-04-05T06:31:42.816Z,4.18
2019-04-05T06:32:42.797Z,4.25
2019-04-05T06:33:42.826Z,4.37
2019-04-05T06:34:42.840Z,4.42
2019-04-05T06:35:42.769Z,4.52
2019-04-05T06:36:42.764Z,4.50
2019-04-05T06:37:43.361Z,4.47
2019-04-05T06:38:42.745Z,4.52
2019-04-05T06:39:42.736Z,4.47
2019-04-05T06:40:43.311Z,4.57
2019-04-05T06:41:42.706Z,4.62
2019-04-05T06:42:43.367Z,4.55
2019-04-05T06:43:42.690Z,4.62
2019-04-05T06:44:42.813Z,4.67
2019-04-05T06:45:42.715Z,4.72
2019-04-05T06:46:42.667Z,4.77
2019-04-05T06:47:42.674Z,4.83
2019-04-05T06:48:42.639Z,4.94
2019-04-05T06:49:42.647Z,4.89
2019-04-05T06:50:42.635Z,5.02
2019-04-05T06:51:42.620Z,5.10
2019-04-05T06:52:42.625Z,4.88
2019-04-05T06:53:42.593Z,5.04
2019-04-05T06:54:42.583Z,4.95
2019-04-05T06:55:42.568Z,5.01
2019-04-05T06:56:42.580Z,5.01
2019-04-05T06:57:42.597Z,5.04
2019-04-05T06:58:42.532Z,4.92
2019-04-05T06:59:42.524Z,4.91
2019-04-05T07:00:56.070Z,4.95
2019-04-05T07:01:43.503Z,5.10
2019-04-05T07:02:42.537Z,5.12
2019-04-05T07:03:42.485Z,5.14
2019-04-05T07:04:42.469Z,5.17
2019-04-05T07:05:42.464Z,5.22
2019-04-05T07:06:42.452Z,5.14
2019-04-05T07:07:42.443Z,5.12
2019-04-05T07:08:53.159Z,5.01
2019-04-05T07:09:43.421Z,5.05
2019-04-05T07:10:45.079Z,5.01
2019-04-05T07:11:42.392Z,4.99
2019-04-05T07:12:42.415Z,4.92
2019-04-05T07:13:42.402Z,4.99
2019-04-05T07:14:42.375Z,5.01
2019-04-05T07:15:42.358Z,4.98
2019-04-05T07:16:42.362Z,4.95
2019-04-05T07:17:42.350Z,4.91
2019-04-05T07:18:42.356Z,4.94
2019-04-05T07:19:42.349Z,4.89
2019-04-05T07:20:42.308Z,4.95
2019-04-05T07:21:42.825Z,4.95
2019-04-05T07:22:42.288Z,4.95
2019-04-05T07:23:42.290Z,4.98
2019-04-05T07:24:42.262Z,5.10
2019-04-05T07:25:42.282Z,5.07
2019-04-05T07:26:42.255Z,5.01
2019-04-05T07:27:42.232Z,5.10
2019-04-05T07:28:42.256Z,5.12
2019-04-05T07:29:42.208Z,5.05
2019-04-05T07:30:42.209Z,5.04
2019-04-05T07:31:42.201Z,5.13
2019-04-05T07:32:42.189Z,5.22
2019-04-05T07:33:42.213Z,5.20
2019-04-05T07:34:42.156Z,5.23
2019-04-05T07:35:42.323Z,5.16
2019-04-05T07:37:58.994Z,5.09
2019-04-05T07:38:58.958Z,5.05
2019-04-05T07:39:58.917Z,5.10
2019-04-05T07:40:58.901Z,5.17
2019-04-05T07:41:58.901Z,5.19
2019-04-05T07:42:58.885Z,5.09
2019-04-05T07:43:58.901Z,5.19
2019-04-05T07:44:58.872Z,5.17
2019-04-05T07:45:58.848Z,5.28
2019-04-05T07:46:58.830Z,5.14
2019-04-05T07:47:58.837Z,5.16
2019-04-05T07:48:58.840Z,5.23
2019-04-05T07:49:58.877Z,5.23
2019-04-05T07:50:58.803Z,5.31
2019-04-05T07:51:58.791Z,5.28
2019-04-05T07:52:58.783Z,5.40
2019-04-05T07:53:58.801Z,5.43
2019-04-05T07:54:58.769Z,5.55
2019-04-05T07:55:58.746Z,5.53
2019-04-05T07:56:58.735Z,5.64
2019-04-05T07:57:58.721Z,5.60
2019-04-05T07:58:58.739Z,5.68
2019-04-05T07:59:58.716Z,5.73
2019-04-05T08:00:58.692Z,5.82
2019-04-05T08:01:58.687Z,5.95
2019-04-05T08:02:58.670Z,6.07
2019-04-05T08:03:58.699Z,6.11
2019-04-05T08:04:58.659Z,6.13
2019-04-05T08:05:58.649Z,6.25
2019-04-05T08:06:58.633Z,6.40
2019-04-05T08:07:58.627Z,6.53
2019-04-05T08:08:58.673Z,6.48
2019-04-05T08:09:58.595Z,6.47
2019-04-05T08:10:58.606Z,6.43
2019-04-05T08:11:58.587Z,6.33
2019-04-05T08:12:58.570Z,6.36
2019-04-05T08:13:58.590Z,6.35
2019-04-05T08:14:58.555Z,6.32
2019-04-05T08:16:01.214Z,6.47
2019-04-05T08:16:58.535Z,6.56
2019-04-05T08:17:58.527Z,6.86
2019-04-05T09:57:40.456Z,9.10
2019-04-05T09:58:40.422Z,9.12
2019-04-05T09:59:40.411Z,9.16
2019-04-05T10:00:41.157Z,9.04
2019-04-05T10:01:40.392Z,9.10
2019-04-05T10:02:40.400Z,9.09
2019-04-05T10:03:41.095Z,9.09
2019-04-05T10:04:40.363Z,9.25
2019-04-05T10:05:40.351Z,10.01
2019-04-05T10:06:40.334Z,11.10
2019-04-05T10:07:53.824Z,11.11
2019-04-05T10:08:41.342Z,11.17
2019-04-05T10:09:40.351Z,10.33
2019-04-05T10:10:40.295Z,10.06
2019-04-05T10:11:40.291Z,9.96
2019-04-05T10:12:40.271Z,9.71
2019-04-05T10:13:40.264Z,9.63
2019-04-05T10:14:40.300Z,9.58
2019-04-05T10:15:40.245Z,9.86
2019-04-05T10:16:40.235Z,10.25
2019-04-05T10:17:40.251Z,11.17
2019-04-05T10:18:40.210Z,12.27
2019-04-05T10:19:49.686Z,12.99
2019-04-05T10:20:41.217Z,13.07
2019-04-05T10:21:40.238Z,12.81
2019-04-05T10:22:40.193Z,12.33
2019-04-05T10:23:40.182Z,11.80
2019-04-05T10:24:40.170Z,11.41
2019-04-05T10:25:40.184Z,11.21
2019-04-05T10:26:40.134Z,11.20
2019-04-05T10:27:40.121Z,11.13
2019-04-05T10:28:40.138Z,10.91
2019-04-05T10:29:40.093Z,10.94
2019-04-05T10:30:40.180Z,10.89
2019-04-05T10:31:40.071Z,10.80
2019-04-05T10:32:40.062Z,10.63
2019-04-05T10:33:40.063Z,10.44
2019-04-05T10:34:40.044Z,10.14
2019-04-05T10:35:40.051Z,10.00
2019-04-05T10:36:40.024Z,9.75
2019-04-05T10:37:40.004Z,9.73
2019-04-05T10:38:39.998Z,9.89
2019-04-05T10:39:39.996Z,9.91
2019-04-05T10:40:40.018Z,9.88
2019-04-05T10:41:39.972Z,9.75
2019-04-05T10:42:39.963Z,9.97
2019-04-05T10:43:39.950Z,10.15
2019-04-05T10:44:39.931Z,10.21
2019-04-05T10:45:39.953Z,10.18
2019-04-05T10:46:39.922Z,10.33
2019-04-05T10:47:39.930Z,10.42
2019-04-05T10:48:39.890Z,10.42
2019-04-05T10:49:39.934Z,10.43
2019-04-05T10:50:39.918Z,10.32
2019-04-05T10:51:39.855Z,10.01
2019-04-05T10:52:39.852Z,9.89
2019-04-05T10:53:39.882Z,9.81
2019-04-05T10:54:39.823Z,9.81
2019-04-05T10:55:39.866Z,9.88
2019-04-05T10:56:39.814Z,9.86
2019-04-05T10:57:39.802Z,9.75
2019-04-05T10:58:39.795Z,9.57
2019-04-05T10:59:39.779Z,9.63
2019-04-05T11:00:39.813Z,9.70
2019-04-05T11:01:39.775Z,9.61
2019-04-05T11:02:39.802Z,9.61
2019-04-05T11:03:39.739Z,9.71
2019-04-05T11:04:39.745Z,9.68
2019-04-05T11:05:39.757Z,9.83
2019-04-05T11:06:39.702Z,9.97
2019-04-05T11:07:39.697Z,10.44
2019-04-05T11:08:39.685Z,10.53
2019-04-05T11:09:39.745Z,10.43
2019-04-05T11:10:39.703Z,10.62
2019-04-05T11:11:39.652Z,10.55
2019-04-05T11:12:39.640Z,10.43
2019-04-05T11:13:40.617Z,10.56
2019-04-05T11:14:39.616Z,10.63
2019-04-05T11:15:39.639Z,10.88
2019-04-05T11:16:39.631Z,10.86
2019-04-05T11:17:41.501Z,10.98
2019-04-05T11:18:39.583Z,10.83
2019-04-05T11:19:39.576Z,10.78
2019-04-05T11:20:39.716Z,10.71
2019-04-05T11:21:39.541Z,10.43
2019-04-05T11:22:39.581Z,10.32
2019-04-05T11:23:39.526Z,10.19
2019-04-05T11:24:39.535Z,10.17
2019-04-05T11:25:39.548Z,10.33
2019-04-05T11:26:39.496Z,10.58
2019-04-05T11:27:39.489Z,10.73
2019-04-05T11:28:39.489Z,10.71
2019-04-05T11:29:39.465Z,10.94
2019-04-05T11:30:39.484Z,11.10
2019-04-05T11:31:39.438Z,11.06
2019-04-05T11:32:39.427Z,11.19
2019-04-05T11:33:39.420Z,10.98
2019-04-05T11:34:39.405Z,11.09
2019-04-05T11:35:39.434Z,11.16
2019-04-05T11:36:39.397Z,10.96
2019-04-05T11:37:39.761Z,10.94
2019-04-05T11:38:39.370Z,10.99
2019-04-05T11:39:39.362Z,10.66
2019-04-05T11:40:39.392Z,10.81
2019-04-05T11:41:39.334Z,10.81
2019-04-05T11:42:39.326Z,10.83
2019-04-05T11:43:39.315Z,10.84
2019-04-05T11:44:39.299Z,10.96
2019-04-05T11:45:39.363Z,11.10
2019-04-05T11:46:39.288Z,10.92
2019-04-05T11:47:39.283Z,11.02
2019-04-05T11:48:41.258Z,11.25
2019-04-05T11:49:39.298Z,11.52
2019-04-05T11:50:39.243Z,11.65
2019-04-05T11:51:39.267Z,11.75
2019-04-05T11:52:39.227Z,11.93
2019-04-05T11:53:39.204Z,12.29
2019-04-05T11:54:39.197Z,12.15
2019-04-05T11:55:39.188Z,12.12
2019-04-05T11:56:39.302Z,12.08
2019-04-05T11:57:41.033Z,12.12
2019-04-05T11:58:39.163Z,12.23
2019-04-05T11:59:39.149Z,12.37
2019-04-05T12:00:39.127Z,13.00
2019-04-05T12:01:39.153Z,12.87
2019-04-05T12:02:39.178Z,12.85
2019-04-05T12:03:39.103Z,12.74
2019-04-05T12:04:39.094Z,12.62
2019-04-05T12:05:39.082Z,12.75
2019-04-05T12:06:39.123Z,12.82
2019-04-05T12:07:39.068Z,12.52
2019-04-05T12:08:39.061Z,12.29
2019-04-05T12:09:39.098Z,12.51
2019-04-05T12:10:39.041Z,12.51
2019-04-05T12:11:39.439Z,12.49
2019-04-05T12:12:39.017Z,12.12
2019-04-05T12:13:39.040Z,11.65
2019-04-05T12:14:38.983Z,11.71
2019-04-05T12:15:38.973Z,11.82
2019-04-05T12:16:38.974Z,12.04
2019-04-05T12:17:38.960Z,11.86
2019-04-05T12:18:38.968Z,12.06
2019-04-05T12:19:38.963Z,12.08
2019-04-05T12:20:49.401Z,12.06
2019-04-05T12:21:40.538Z,11.83
2019-04-05T12:22:38.932Z,11.71
2019-04-05T12:23:38.902Z,11.70
2019-04-05T12:24:38.873Z,11.46
2019-04-05T12:25:38.865Z,11.32
2019-04-05T12:26:38.918Z,11.44
2019-04-05T12:27:38.852Z,11.36
2019-04-05T12:28:38.869Z,11.31
2019-04-05T12:29:38.830Z,11.17
2019-04-05T12:30:38.822Z,11.19
2019-04-05T12:31:38.803Z,11.17
2019-04-05T12:32:41.337Z,11.31
2019-04-05T12:33:38.795Z,11.35
2019-04-05T12:34:38.778Z,11.10
2019-04-05T12:35:38.780Z,10.84
2019-04-05T12:36:38.779Z,10.84
2019-04-05T12:37:49.631Z,10.92
2019-04-05T12:38:39.755Z,11.11
2019-04-05T12:39:38.726Z,11.19
2019-04-05T12:40:40.682Z,11.11
2019-04-05T12:41:40.859Z,11.28
2019-04-05T12:42:40.642Z,11.36
2019-04-05T12:43:38.673Z,11.29
2019-04-05T12:44:38.677Z,11.32
2019-04-05T12:45:38.661Z,11.28
2019-04-05T12:46:38.692Z,11.35
2019-04-05T12:47:38.650Z,11.27
2019-04-05T12:48:38.629Z,11.09
2019-04-05T12:49:38.628Z,11.09
2019-04-05T12:50:38.610Z,11.11
2019-04-05T12:51:38.634Z,11.11
2019-04-05T12:52:38.625Z,11.29
2019-04-05T12:53:38.567Z,11.16
2019-04-05T12:54:38.567Z,11.28
2019-04-05T12:55:38.551Z,11.21
2019-04-05T12:56:38.539Z,11.09
2019-04-05T12:57:38.528Z,10.96
2019-04-05T12:58:38.550Z,11.02
2019-04-05T12:59:38.542Z,11.03
2019-04-05T13:00:39.018Z,11.01
2019-04-05T13:01:38.496Z,11.11
2019-04-05T13:02:38.544Z,11.14
2019-04-05T13:03:38.462Z,11.19
2019-04-05T13:04:38.577Z,11.35
2019-04-05T13:05:38.489Z,11.28
2019-04-05T13:06:38.447Z,11.20
2019-04-05T13:07:38.474Z,11.01
2019-04-05T13:08:38.436Z,10.98
2019-04-05T13:09:38.407Z,11.21
2019-04-05T13:10:38.430Z,11.32
2019-04-05T13:11:38.396Z,11.53
2019-04-05T13:12:38.398Z,11.46
2019-04-05T13:13:38.377Z,11.29
2019-04-05T13:14:38.360Z,11.28
2019-04-05T13:15:39.958Z,11.03
2019-04-05T13:16:38.331Z,11.27
2019-04-05T13:17:38.355Z,11.32
2019-04-05T13:18:38.304Z,11.21
2019-04-05T13:19:38.310Z,11.21
2019-04-05T13:20:38.296Z,11.53
2019-04-05T13:21:38.292Z,11.21
2019-04-05T13:22:38.308Z,11.27
2019-04-05T13:23:38.255Z,11.31
2019-04-05T13:24:40.293Z,11.32
2019-04-05T13:25:40.727Z,11.67
2019-04-05T13:26:41.639Z,12.27
2019-04-05T13:27:41.261Z,12.33
2019-04-05T13:28:38.208Z,12.89
2019-04-05T13:29:38.189Z,12.69
2019-04-05T13:30:38.190Z,12.37
2019-04-05T13:31:38.177Z,12.13
2019-04-05T13:32:38.206Z,11.83
2019-04-05T13:33:38.153Z,11.64
2019-04-05T13:34:38.185Z,11.53
2019-04-05T13:35:38.127Z,11.46
2019-04-05T13:36:38.153Z,11.61
2019-04-05T13:37:38.170Z,11.74
2019-04-05T13:38:38.098Z,11.75
2019-04-05T13:39:38.094Z,11.67
2019-04-05T13:40:38.083Z,11.65
2019-04-05T13:41:38.084Z,11.67
2019-04-05T13:42:38.096Z,11.70
2019-04-05T13:43:38.046Z,11.74
2019-04-05T13:44:38.055Z,11.65
2019-04-05T13:45:38.025Z,11.77
2019-04-05T13:46:39.055Z,12.02
2019-04-05T13:47:39.011Z,12.16
2019-04-05T13:48:40.150Z,12.26
2019-04-05T13:49:38.570Z,12.15
2019-04-05T13:50:41.404Z,12.12
2019-04-05T13:51:41.565Z,11.94
2019-04-05T13:52:41.447Z,11.90
2019-04-05T13:53:40.208Z,11.80
2019-04-05T13:54:38.298Z,11.65
2019-04-05T13:55:38.504Z,11.64
2019-04-05T13:56:41.108Z,11.86
2019-04-05T13:57:40.126Z,12.04
2019-04-05T13:58:37.919Z,12.01
2019-04-05T13:59:37.876Z,12.08
2019-04-05T14:00:37.872Z,11.97
2019-04-05T14:01:37.856Z,11.82
2019-04-05T14:02:37.844Z,11.64
2019-04-05T14:03:38.643Z,11.62
2019-04-05T14:04:37.827Z,11.75
2019-04-05T14:05:37.814Z,11.67
2019-04-05T14:06:37.810Z,11.83
2019-04-05T14:07:37.821Z,11.87
2019-04-05T14:08:41.126Z,12.05
2019-04-05T14:09:40.362Z,11.97
2019-04-05T14:10:39.613Z,11.86
2019-04-05T14:11:39.462Z,11.94
2019-04-05T14:12:40.250Z,12.21
2019-04-05T14:13:42.182Z,12.29
2019-04-05T14:14:39.456Z,12.39
2019-04-05T14:15:41.812Z,12.63
2019-04-05T14:16:38.419Z,12.42
2019-04-05T14:17:37.684Z,12.21
2019-04-05T14:18:37.798Z,12.12
2019-04-05T14:19:37.672Z,12.16
2019-04-05T14:20:37.663Z,12.34
2019-04-05T14:21:41.191Z,12.45
2019-04-05T14:22:38.634Z,12.41
2019-04-05T14:23:37.665Z,12.48
2019-04-05T14:24:37.619Z,12.57
2019-04-05T14:25:37.599Z,12.38
2019-04-05T14:26:37.598Z,12.34
2019-04-05T14:27:37.581Z,12.33
2019-04-05T14:28:37.605Z,12.41
2019-04-05T14:29:37.567Z,12.70
2019-04-05T14:30:37.618Z,12.74
2019-04-05T14:31:37.542Z,12.81
2019-04-05T14:32:37.528Z,13.00
2019-04-05T14:33:37.558Z,12.99
2019-04-05T14:34:37.524Z,13.20
2019-04-05T14:35:37.499Z,13.37
2019-04-05T14:36:37.483Z,12.97
2019-04-05T14:37:37.481Z,13.02
2019-04-05T14:38:37.510Z,12.81
2019-04-05T14:39:37.455Z,12.54
2019-04-05T14:40:37.443Z,12.39
2019-04-05T14:41:37.447Z,12.33
2019-04-05T14:42:37.427Z,12.29
2019-04-05T14:43:37.884Z,12.51
2019-04-05T14:44:38.143Z,12.38
2019-04-05T14:45:37.395Z,12.52
2019-04-05T14:46:38.520Z,12.96
2019-04-05T14:47:37.372Z,13.32
2019-04-05T14:48:37.373Z,13.22
2019-04-05T14:49:37.422Z,13.15